createdAt,value
2022-09-01T00:00:43.266Z,0
2022-09-01T00:01:43.861Z,0
2022-09-01T00:02:44.491Z,0
2022-09-01T00:03:45.052Z,0
2022-09-01T00:04:45.686Z,0
2022-09-01T00:05:46.291Z,0
2022-09-01T00:06:46.872Z,0
2022-09-01T00:07:47.473Z,0
2022-09-01T00:08:48.079Z,0
2022-09-01T00:09:48.667Z,0
2022-09-01T00:10:49.263Z,0
2022-09-01T00:11:50.659Z,0
2022-09-01T00:12:51.387Z,0
2022-09-01T00:13:51.984Z,0
2022-09-01T00:14:52.579Z,0
2022-09-01T00:15:53.261Z,0
2022-09-01T00:16:53.800Z,0
2022-09-01T00:17:54.392Z,0
2022-09-01T00:18:54.990Z,0
2022-09-01T00:19:55.605Z,0
2022-09-01T00:20:56.199Z,0
2022-09-01T00:21:56.792Z,0
2022-09-01T00:22:57.388Z,0
2022-09-01T00:23:57.983Z,0
2022-09-01T00:24:58.579Z,0
2022-09-01T00:25:59.173Z,0
2022-09-01T00:26:59.768Z,0
2022-09-01T00:28:00.370Z,0
2022-09-01T00:29:00.960Z,0
2022-09-01T00:30:01.555Z,0
2022-09-01T00:31:02.182Z,0
2022-09-01T00:32:02.765Z,0
2022-09-01T00:33:03.537Z,0
2022-09-01T00:34:04.133Z,0
2022-09-01T00:35:04.730Z,0
2022-09-01T00:36:05.320Z,0
2022-09-01T00:37:05.915Z,0
2022-09-01T00:38:06.510Z,0
2022-09-01T00:39:07.131Z,0
2022-09-01T00:40:07.777Z,0
2022-09-01T00:41:08.375Z,0
2022-09-01T00:42:08.968Z,0
2022-09-01T00:43:09.564Z,0
2022-09-01T00:44:10.157Z,0
2022-09-01T00:45:10.754Z,0
2022-09-01T00:46:11.371Z,0
2022-09-01T00:47:11.942Z,0
2022-09-01T00:48:13.262Z,0
2022-09-01T00:49:14.351Z,0
2022-09-01T00:50:14.946Z,0
2022-09-01T00:51:15.541Z,0
2022-09-01T00:52:16.135Z,0
2022-09-01T00:53:16.732Z,0
2022-09-01T00:54:17.326Z,0
2022-09-01T00:55:17.924Z,0
2022-09-01T00:56:18.535Z,0
2022-09-01T00:57:19.130Z,0
2022-09-01T00:58:20.254Z,0
2022-09-01T00:59:20.836Z,0
2022-09-01T01:00:21.428Z,0
2022-09-01T01:01:22.080Z,0
2022-09-01T01:02:22.705Z,0
2022-09-01T01:03:23.263Z,0
2022-09-01T01:04:23.859Z,0
2022-09-01T01:05:24.591Z,0
2022-09-01T01:06:25.187Z,0
2022-09-01T01:07:26.775Z,0
2022-09-01T01:08:27.369Z,0
2022-09-01T01:09:27.965Z,0
2022-09-01T01:10:28.558Z,0
2022-09-01T01:11:29.152Z,0
2022-09-01T01:12:29.745Z,0
2022-09-01T01:13:30.343Z,0
2022-09-01T01:14:30.938Z,0
2022-09-01T01:15:31.537Z,0
2022-09-01T01:16:32.154Z,0
2022-09-01T01:17:32.722Z,0
2022-09-01T01:18:33.318Z,0
2022-09-01T01:19:38.779Z,0
2022-09-01T01:20:35.518Z,0
2022-09-01T01:21:36.112Z,0
2022-09-01T01:22:36.708Z,0
2022-09-01T01:23:37.312Z,0
2022-09-01T01:24:37.898Z,0
2022-09-01T01:25:38.516Z,0
2022-09-01T01:26:39.110Z,0
2022-09-01T01:27:42.930Z,0
2022-09-01T01:28:41.294Z,0
2022-09-01T01:29:41.887Z,0
2022-09-01T01:30:42.535Z,0
2022-09-01T01:31:43.080Z,0
2022-09-01T01:32:43.691Z,0
2022-09-01T01:33:44.270Z,0
2022-09-01T01:34:44.863Z,0
2022-09-01T01:35:45.460Z,0
2022-09-01T01:36:46.054Z,0
2022-09-01T01:37:46.676Z,0
2022-09-01T01:38:47.248Z,0
2022-09-01T01:39:47.841Z,0
2022-09-01T01:40:48.465Z,0
2022-09-01T01:41:49.070Z,0
2022-09-01T01:42:49.629Z,0
2022-09-01T01:43:50.222Z,0
2022-09-01T01:44:50.818Z,0
2022-09-01T01:45:51.448Z,0
2022-09-01T01:46:52.014Z,0
2022-09-01T01:47:52.608Z,0
2022-09-01T01:48:53.203Z,0
2022-09-01T01:49:53.800Z,0
2022-09-01T01:50:54.393Z,0
2022-09-01T01:51:55.076Z,0
2022-09-01T01:52:58.314Z,0
2022-09-01T01:53:57.252Z,0
2022-09-01T01:55:00.154Z,0
2022-09-01T01:55:59.432Z,0
2022-09-01T01:57:00.032Z,0
2022-09-01T01:58:00.630Z,0
2022-09-01T01:59:01.218Z,0
2022-09-01T02:00:01.832Z,0
2022-09-01T02:01:02.503Z,0
2022-09-01T02:02:03.130Z,0
2022-09-01T02:03:03.679Z,0
2022-09-01T02:04:04.283Z,0
2022-09-01T02:05:04.864Z,0
2022-09-01T02:06:05.462Z,0
2022-09-01T02:07:06.054Z,0
2022-09-01T02:08:06.650Z,0
2022-09-01T02:09:07.263Z,0
2022-09-01T02:10:07.860Z,0
2022-09-01T02:11:08.460Z,0
2022-09-01T02:12:09.046Z,0
2022-09-01T02:13:09.641Z,0
2022-09-01T02:14:10.236Z,0
2022-09-01T02:15:10.830Z,0
2022-09-01T02:16:11.426Z,0
2022-09-01T02:17:12.098Z,0
2022-09-01T02:18:12.652Z,0
2022-09-01T02:19:13.246Z,0
2022-09-01T02:20:14.834Z,0
2022-09-01T02:21:18.460Z,0
2022-09-01T02:22:17.018Z,0
2022-09-01T02:23:17.612Z,0
2022-09-01T02:24:18.207Z,0
2022-09-01T02:25:18.801Z,0
2022-09-01T02:26:19.412Z,0
2022-09-01T02:27:19.990Z,0
2022-09-01T02:28:20.747Z,0
2022-09-01T02:29:21.334Z,0
2022-09-01T02:30:22.086Z,0
2022-09-01T02:31:22.651Z,0
2022-09-01T02:32:23.246Z,0
2022-09-01T02:33:23.839Z,0
2022-09-01T02:34:24.440Z,0
2022-09-01T02:35:25.028Z,0
2022-09-01T02:36:25.623Z,0
2022-09-01T02:37:26.218Z,0
2022-09-01T02:38:26.813Z,0
2022-09-01T02:39:27.407Z,0
2022-09-01T02:40:28.026Z,0
2022-09-01T02:41:28.596Z,0
2022-09-01T02:42:29.194Z,0
2022-09-01T02:43:29.787Z,0
2022-09-01T02:44:30.385Z,0
2022-09-01T02:45:31.003Z,0
2022-09-01T02:46:31.588Z,0
2022-09-01T02:47:32.169Z,0
2022-09-01T02:48:32.764Z,0
2022-09-01T02:49:33.711Z,0
2022-09-01T02:50:34.306Z,0
2022-09-01T02:51:34.899Z,0
2022-09-01T02:52:35.497Z,0
2022-09-01T02:53:36.091Z,0
2022-09-01T02:54:36.687Z,0
2022-09-01T02:55:37.282Z,0
2022-09-01T02:56:37.876Z,0
2022-09-01T02:57:38.473Z,0
2022-09-01T02:58:39.067Z,0
2022-09-01T02:59:43.687Z,0
2022-09-01T03:00:42.243Z,0
2022-09-01T03:01:42.835Z,0
2022-09-01T03:02:43.430Z,0
2022-09-01T03:03:44.026Z,0
2022-09-01T03:04:44.703Z,0
2022-09-01T03:05:45.268Z,0
2022-09-01T03:06:45.865Z,0
2022-09-01T03:07:46.460Z,0
2022-09-01T03:08:47.056Z,0
2022-09-01T03:09:47.649Z,0
2022-09-01T03:10:48.246Z,0
2022-09-01T03:11:48.844Z,0
2022-09-01T03:12:49.437Z,0
2022-09-01T03:13:50.031Z,0
2022-09-01T03:14:50.626Z,0
2022-09-01T03:15:51.225Z,0
2022-09-01T03:16:51.954Z,0
2022-09-01T03:17:52.556Z,0
2022-09-01T03:18:53.155Z,0
2022-09-01T03:19:53.748Z,0
2022-09-01T03:20:54.343Z,0
2022-09-01T03:21:54.937Z,0
2022-09-01T03:22:55.534Z,0
2022-09-01T03:23:56.127Z,0
2022-09-01T03:24:56.723Z,0
2022-09-01T03:25:57.317Z,0
2022-09-01T03:26:57.912Z,0
2022-09-01T03:27:58.507Z,0
2022-09-01T03:28:59.102Z,0
2022-09-01T03:29:59.695Z,0
2022-09-01T03:31:00.294Z,0
2022-09-01T03:32:00.939Z,0
2022-09-01T03:33:01.498Z,0
2022-09-01T03:34:02.090Z,0
2022-09-01T03:35:02.686Z,0
2022-09-01T03:36:03.280Z,0
2022-09-01T03:37:03.877Z,0
2022-09-01T03:38:04.469Z,0
2022-09-01T03:39:05.063Z,0
2022-09-01T03:40:05.687Z,0
2022-09-01T03:41:06.253Z,0
2022-09-01T03:42:06.846Z,0
2022-09-01T03:43:07.443Z,0
2022-09-01T03:44:08.038Z,0
2022-09-01T03:45:08.633Z,0
2022-09-01T03:46:09.336Z,0
2022-09-01T03:47:09.902Z,0
2022-09-01T03:48:10.496Z,0
2022-09-01T03:49:11.096Z,0
2022-09-01T03:50:11.686Z,0
2022-09-01T03:51:12.284Z,0
2022-09-01T03:52:12.883Z,0
2022-09-01T03:53:13.493Z,0
2022-09-01T03:54:14.094Z,0
2022-09-01T03:55:14.686Z,0
2022-09-01T03:56:15.310Z,0
2022-09-01T03:57:15.872Z,0
2022-09-01T03:58:17.363Z,0
2022-09-01T03:59:18.950Z,0
2022-09-01T04:00:19.547Z,0
2022-09-01T04:01:20.421Z,0
2022-09-01T04:02:21.045Z,0
2022-09-01T04:03:21.593Z,0
2022-09-01T04:04:22.203Z,0
2022-09-01T04:05:22.796Z,0
2022-09-01T04:06:23.411Z,0
2022-09-01T04:07:24.032Z,0
2022-09-01T04:08:24.620Z,0
2022-09-01T04:09:25.219Z,0
2022-09-01T04:10:25.816Z,0
2022-09-01T04:11:26.411Z,0
2022-09-01T04:12:27.007Z,0
2022-09-01T04:13:27.603Z,0
2022-09-01T04:14:29.921Z,0
2022-09-01T04:15:29.789Z,0
2022-09-01T04:16:30.447Z,0
2022-09-01T04:17:30.993Z,0
2022-09-01T04:18:31.587Z,0
2022-09-01T04:19:32.183Z,0
2022-09-01T04:20:32.780Z,0
2022-09-01T04:21:33.373Z,0
2022-09-01T04:22:33.972Z,5
2022-09-01T04:23:34.587Z,5
2022-09-01T04:24:35.185Z,5
2022-09-01T04:25:35.780Z,5
2022-09-01T04:26:36.396Z,5
2022-09-01T04:27:36.995Z,5
2022-09-01T04:28:37.592Z,11
2022-09-01T04:29:38.556Z,11
2022-09-01T04:30:39.106Z,11
2022-09-01T04:31:39.729Z,11
2022-09-01T04:32:40.299Z,16
2022-09-01T04:33:40.897Z,16
2022-09-01T04:34:41.493Z,16
2022-09-01T04:35:42.092Z,22
2022-09-01T04:36:42.692Z,22
2022-09-01T04:37:43.288Z,22
2022-09-01T04:38:43.887Z,28
2022-09-01T04:39:44.486Z,28
2022-09-01T04:40:45.122Z,33
2022-09-01T04:41:45.681Z,33
2022-09-01T04:42:46.299Z,39
2022-09-01T04:43:46.896Z,39
2022-09-01T04:44:47.516Z,45
2022-09-01T04:45:48.160Z,45
2022-09-01T04:46:48.714Z,50
2022-09-01T04:47:49.313Z,50
2022-09-01T04:48:49.930Z,56
2022-09-01T04:49:50.527Z,56
2022-09-01T04:50:51.128Z,61
2022-09-01T04:51:53.871Z,61
2022-09-01T04:52:53.319Z,67
2022-09-01T04:53:53.918Z,67
2022-09-01T04:54:54.518Z,73
2022-09-01T04:55:55.120Z,78
2022-09-01T04:56:55.717Z,78
2022-09-01T04:57:56.315Z,84
2022-09-01T04:58:56.916Z,84
2022-09-01T04:59:57.513Z,90
2022-09-01T05:00:58.188Z,90
2022-09-01T05:01:58.810Z,95
2022-09-01T05:02:59.364Z,101
2022-09-01T05:03:59.962Z,101
2022-09-01T05:05:00.561Z,106
2022-09-01T05:06:01.160Z,106
2022-09-01T05:07:01.836Z,112
2022-09-01T05:08:02.437Z,118
2022-09-01T05:09:03.037Z,118
2022-09-01T05:10:03.638Z,123
2022-09-01T05:11:04.238Z,123
2022-09-01T05:12:04.839Z,129
2022-09-01T05:13:05.439Z,129
2022-09-01T05:14:06.039Z,135
2022-09-01T05:15:06.642Z,135
2022-09-01T05:16:07.281Z,140
2022-09-01T05:17:07.876Z,140
2022-09-01T05:18:08.473Z,146
2022-09-01T05:19:09.075Z,146
2022-09-01T05:20:09.675Z,151
2022-09-01T05:21:10.276Z,151
2022-09-01T05:22:10.878Z,157
2022-09-01T05:23:11.497Z,157
2022-09-01T05:24:12.097Z,163
2022-09-01T05:25:12.700Z,163
2022-09-01T05:26:13.300Z,168
2022-09-01T05:27:13.903Z,168
2022-09-01T05:28:14.506Z,174
2022-09-01T05:29:15.103Z,174
2022-09-01T05:30:15.704Z,180
2022-09-01T05:31:16.355Z,180
2022-09-01T05:32:16.908Z,185
2022-09-01T05:33:21.221Z,185
2022-09-01T05:34:19.104Z,191
2022-09-01T05:35:19.703Z,191
2022-09-01T05:36:20.301Z,191
2022-09-01T05:37:20.902Z,196
2022-09-01T05:38:21.641Z,196
2022-09-01T05:39:22.238Z,202
2022-09-01T05:40:22.852Z,202
2022-09-01T05:41:23.435Z,202
2022-09-01T05:42:24.034Z,208
2022-09-01T05:43:24.634Z,208
2022-09-01T05:44:25.230Z,213
2022-09-01T05:45:25.831Z,213
2022-09-01T05:46:26.476Z,213
2022-09-01T05:47:27.035Z,219
2022-09-01T05:48:27.634Z,219
2022-09-01T05:49:28.253Z,225
2022-09-01T05:50:28.851Z,225
2022-09-01T05:51:46.385Z,225
2022-09-01T05:52:31.043Z,230
2022-09-01T05:53:31.644Z,230
2022-09-01T05:54:33.050Z,236
2022-09-01T05:55:33.671Z,236
2022-09-01T05:56:34.270Z,236
2022-09-01T05:57:35.309Z,241
2022-09-01T05:59:37.082Z,247
2022-09-01T06:00:37.682Z,247
2022-09-01T06:01:38.326Z,247
2022-09-01T06:02:39.077Z,253
2022-09-01T06:03:39.717Z,258
2022-09-01T06:04:40.334Z,258
2022-09-01T06:05:40.935Z,264
2022-09-01T06:07:01.773Z,270
2022-09-01T06:07:43.128Z,275
2022-09-01T06:08:46.822Z,281
2022-09-01T06:09:45.343Z,281
2022-09-01T06:10:45.943Z,286
2022-09-01T06:11:46.542Z,292
2022-09-01T06:12:48.750Z,298
2022-09-01T06:13:51.404Z,303
2022-09-01T06:14:50.327Z,298
2022-09-01T06:15:50.951Z,303
2022-09-01T06:16:51.525Z,309
2022-09-01T06:17:52.125Z,315
2022-09-01T06:18:52.722Z,320
2022-09-01T06:19:54.316Z,326
2022-09-01T06:20:54.920Z,331
2022-09-01T06:21:55.516Z,331
2022-09-01T06:22:56.118Z,337
2022-09-01T06:23:56.739Z,343
2022-09-01T06:25:01.807Z,348
2022-09-01T06:25:58.928Z,354
2022-09-01T06:26:59.527Z,360
2022-09-01T06:28:00.134Z,365
2022-09-01T06:29:00.725Z,365
2022-09-01T06:30:01.325Z,376
2022-09-01T06:31:01.975Z,388
2022-09-01T06:32:02.547Z,388
2022-09-01T06:33:03.141Z,399
2022-09-01T06:34:03.741Z,399
2022-09-01T06:35:05.272Z,410
2022-09-01T06:36:05.867Z,416
2022-09-01T06:37:06.461Z,421
2022-09-01T06:38:07.062Z,427
2022-09-01T06:39:07.679Z,433
2022-09-01T06:41:21.630Z,450
2022-09-01T06:42:22.232Z,455
2022-09-01T06:43:23.165Z,466
2022-09-01T06:44:23.493Z,478
2022-09-01T06:45:24.061Z,489
2022-09-01T06:46:24.695Z,489
2022-09-01T06:47:25.264Z,500
2022-09-01T06:48:25.892Z,511
2022-09-01T06:49:26.492Z,528
2022-09-01T06:51:28.699Z,551
2022-09-01T06:53:31.941Z,562
2022-09-01T06:53:32.725Z,573
2022-09-01T06:54:32.366Z,579
2022-09-01T06:55:32.966Z,590
2022-09-01T06:56:33.784Z,601
2022-09-01T06:58:36.976Z,601
2022-09-01T06:59:37.577Z,613
2022-09-01T07:00:38.193Z,624
2022-09-01T07:01:39.808Z,635
2022-09-01T07:02:40.447Z,652
2022-09-01T07:03:41.135Z,669
2022-09-01T07:04:41.790Z,686
2022-09-01T07:07:00.086Z,714
2022-09-01T07:09:53.342Z,759
2022-09-01T07:11:22.125Z,770
2022-09-01T07:12:08.858Z,776
2022-09-01T07:13:08.993Z,781
2022-09-01T07:18:01.519Z,804
2022-09-01T07:19:02.120Z,810
2022-09-01T07:21:09.382Z,843
2022-09-01T07:22:07.283Z,855
2022-09-01T07:23:07.355Z,877
2022-09-01T07:24:10.534Z,911
2022-09-01T07:25:12.154Z,945
2022-09-01T07:26:10.990Z,984
2022-09-01T07:27:11.593Z,1023
2022-09-01T07:28:15.849Z,1063
2022-09-01T07:29:13.792Z,1080
2022-09-01T07:30:15.198Z,1091
2022-09-01T07:35:22.183Z,1113
2022-09-01T07:36:26.854Z,1125
2022-09-01T07:43:33.996Z,1231
2022-09-01T07:44:34.552Z,1231
2022-09-01T07:45:35.155Z,1248
2022-09-01T07:46:37.398Z,1276
2022-09-01T07:47:53.335Z,1293
2022-09-01T07:50:11.375Z,1350
2022-09-01T07:51:35.290Z,1372
2022-09-01T07:51:43.651Z,1395
2022-09-01T07:52:44.213Z,1434
2022-09-01T07:53:44.816Z,1445
2022-09-01T07:54:45.419Z,1434
2022-09-01T07:55:46.023Z,1434
2022-09-01T07:56:46.644Z,1428
2022-09-01T07:57:47.267Z,1434
2022-09-01T07:58:47.868Z,1434
2022-09-01T07:59:48.472Z,1434
2022-09-01T08:00:49.072Z,1434
2022-09-01T08:01:49.713Z,1434
2022-09-01T08:02:52.044Z,1445
2022-09-01T08:03:51.887Z,1462
2022-09-01T08:04:52.483Z,1485
2022-09-01T08:05:53.087Z,1496
2022-09-01T08:06:53.685Z,1518
2022-09-01T08:07:54.289Z,1546
2022-09-01T08:08:56.972Z,1569
2022-09-01T08:10:01.463Z,1603
2022-09-01T08:11:05.426Z,1659
2022-09-01T08:12:02.331Z,1721
2022-09-01T08:13:00.290Z,1777
2022-09-01T08:14:00.895Z,1788
2022-09-01T08:16:07.500Z,1800
2022-09-01T08:17:50.508Z,1805
2022-09-01T08:18:06.333Z,1833
2022-09-01T08:19:16.410Z,1867
2022-09-01T08:20:08.509Z,1912
2022-09-01T08:21:10.058Z,1985
2022-09-01T08:22:10.662Z,2053
2022-09-01T08:23:11.261Z,2075
2022-09-01T08:24:11.862Z,2103
2022-09-01T08:25:12.466Z,2109
2022-09-01T08:26:13.071Z,2103
2022-09-01T08:27:13.673Z,2086
2022-09-01T08:28:14.516Z,2053
2022-09-01T08:29:15.116Z,1985
2022-09-01T08:30:15.722Z,1940
2022-09-01T08:31:16.387Z,1946
2022-09-01T08:32:16.958Z,1991
2022-09-01T08:33:17.560Z,2047
2022-09-01T08:34:18.166Z,2030
2022-09-01T08:35:19.115Z,2041
2022-09-01T08:36:23.678Z,2064
2022-09-01T08:37:21.312Z,2086
2022-09-01T08:38:22.025Z,2086
2022-09-01T08:39:22.626Z,2092
2022-09-01T08:40:23.298Z,2086
2022-09-01T08:41:28.667Z,2075
2022-09-01T08:42:25.448Z,2075
2022-09-01T08:43:27.044Z,2109
2022-09-01T08:44:27.647Z,2148
2022-09-01T08:45:28.246Z,2205
2022-09-01T08:46:28.931Z,2278
2022-09-01T08:47:39.492Z,2362
2022-09-01T08:49:23.781Z,2373
2022-09-01T08:49:42.761Z,2401
2022-09-01T08:50:34.899Z,2413
2022-09-01T08:51:35.478Z,2430
2022-09-01T08:52:36.081Z,2475
2022-09-01T08:53:36.682Z,2497
2022-09-01T08:54:37.434Z,2469
2022-09-01T08:55:39.325Z,2430
2022-09-01T08:56:39.938Z,2373
2022-09-01T08:57:40.540Z,2351
2022-09-01T08:58:41.143Z,2340
2022-09-01T08:59:41.743Z,2328
2022-09-01T09:00:42.346Z,2278
2022-09-01T09:01:42.983Z,2221
2022-09-01T09:02:43.599Z,2227
2022-09-01T09:03:44.174Z,2306
2022-09-01T09:04:44.779Z,2373
2022-09-01T09:05:45.380Z,2424
2022-09-01T09:06:45.983Z,2486
2022-09-01T09:07:46.585Z,2536
2022-09-01T09:08:47.188Z,2581
2022-09-01T09:09:53.726Z,2604
2022-09-01T09:10:49.406Z,2593
2022-09-01T09:11:50.025Z,2531
2022-09-01T09:12:50.658Z,2469
2022-09-01T09:13:51.244Z,2480
2022-09-01T09:14:51.848Z,2514
2022-09-01T09:15:52.647Z,2548
2022-09-01T09:16:53.674Z,2576
2022-09-01T09:17:59.564Z,2587
2022-09-01T09:18:56.601Z,2649
2022-09-01T09:19:57.280Z,2728
2022-09-01T09:20:57.882Z,2784
2022-09-01T09:21:58.493Z,2750
2022-09-01T09:22:59.841Z,2733
2022-09-01T09:24:00.420Z,2756
2022-09-01T09:25:01.024Z,2739
2022-09-01T09:26:01.628Z,2705
2022-09-01T09:27:02.256Z,2688
2022-09-01T09:28:02.849Z,2750
2022-09-01T09:29:03.452Z,2874
2022-09-01T09:30:08.318Z,2981
2022-09-01T09:31:05.717Z,3043
2022-09-01T09:32:06.476Z,3054
2022-09-01T09:33:44.353Z,3082
2022-09-01T09:34:08.506Z,3099
2022-09-01T09:35:09.109Z,3127
2022-09-01T09:36:09.734Z,3133
2022-09-01T09:37:10.335Z,3256
2022-09-01T09:38:10.936Z,3290
2022-09-01T09:39:11.539Z,3358
2022-09-01T09:40:12.140Z,3414
2022-09-01T09:41:17.859Z,3498
2022-09-01T09:42:14.337Z,3498
2022-09-01T09:43:15.775Z,3369
2022-09-01T09:44:16.373Z,3234
2022-09-01T09:45:16.976Z,3127
2022-09-01T09:46:25.466Z,3093
2022-09-01T09:47:42.349Z,3099
2022-09-01T09:48:20.771Z,3088
2022-09-01T09:49:34.266Z,3071
2022-09-01T09:50:22.969Z,3043
2022-09-01T09:51:23.574Z,2970
2022-09-01T09:52:24.174Z,2964
2022-09-01T09:53:24.777Z,3037
2022-09-01T09:54:25.557Z,3110
2022-09-01T09:55:26.830Z,3116
2022-09-01T09:56:27.430Z,3105
2022-09-01T09:57:29.027Z,3116
2022-09-01T09:58:29.630Z,3144
2022-09-01T09:59:54.063Z,3127
2022-09-01T10:00:31.827Z,3088
2022-09-01T10:01:32.562Z,3048
2022-09-01T10:02:33.267Z,2975
2022-09-01T10:03:33.873Z,2941
2022-09-01T10:04:35.434Z,2880
2022-09-01T10:05:36.461Z,2840
2022-09-01T10:06:37.054Z,2885
2022-09-01T10:07:37.675Z,2981
2022-09-01T10:08:38.262Z,3138
2022-09-01T10:09:38.866Z,3273
2022-09-01T10:10:39.479Z,3363
2022-09-01T10:11:41.649Z,3391
2022-09-01T10:12:41.672Z,3358
2022-09-01T10:13:42.275Z,3330
2022-09-01T10:14:52.217Z,3251
2022-09-01T10:15:44.475Z,3150
2022-09-01T10:16:46.061Z,3048
2022-09-01T10:17:47.131Z,2919
2022-09-01T10:18:47.791Z,2958
2022-09-01T10:19:48.401Z,3071
2022-09-01T10:20:48.997Z,3223
2022-09-01T10:21:49.601Z,3369
2022-09-01T10:22:50.732Z,3453
2022-09-01T10:23:50.820Z,635
2022-09-01T10:24:51.423Z,601
2022-09-01T10:25:52.036Z,658
2022-09-01T10:26:52.628Z,2480
2022-09-01T10:27:54.989Z,3588
2022-09-01T10:28:55.185Z,3577
2022-09-01T10:30:20.553Z,3521
2022-09-01T10:30:57.475Z,3504
2022-09-01T10:32:21.241Z,3560
2022-09-01T10:33:06.822Z,3690
2022-09-01T10:34:00.248Z,3886
2022-09-01T10:35:01.646Z,4055
2022-09-01T10:36:06.831Z,2103
2022-09-01T10:37:04.554Z,4196
2022-09-01T10:38:05.172Z,4258
2022-09-01T10:39:08.953Z,4275
2022-09-01T10:40:07.487Z,3037
2022-09-01T10:41:10.121Z,4196
2022-09-01T10:42:09.639Z,4083
2022-09-01T10:43:12.409Z,3999
2022-09-01T10:44:10.863Z,3886
2022-09-01T10:45:11.524Z,3813
2022-09-01T10:46:15.984Z,3780
2022-09-01T10:47:14.530Z,3808
2022-09-01T10:48:14.814Z,3870
2022-09-01T10:49:15.996Z,3948
2022-09-01T10:50:16.608Z,883
2022-09-01T10:51:19.023Z,1006
2022-09-01T10:52:19.015Z,2362
2022-09-01T10:53:19.577Z,916
2022-09-01T10:54:20.180Z,1147
2022-09-01T10:55:25.222Z,2441
2022-09-01T10:56:28.316Z,2638
2022-09-01T10:57:27.681Z,3965
2022-09-01T10:59:32.053Z,4111
2022-09-01T11:00:36.843Z,3999
2022-09-01T11:01:47.814Z,866
2022-09-01T11:02:36.343Z,855
2022-09-01T11:03:41.087Z,945
2022-09-01T11:04:35.574Z,1141
2022-09-01T11:05:36.189Z,4314
2022-09-01T11:06:36.772Z,1316
2022-09-01T11:08:38.970Z,4584
2022-09-01T11:09:39.573Z,4595
2022-09-01T11:10:40.175Z,4567
2022-09-01T11:11:40.779Z,4432
2022-09-01T11:12:42.149Z,4359
2022-09-01T11:13:45.260Z,4280
2022-09-01T11:14:44.332Z,4213
2022-09-01T11:15:45.119Z,4179
2022-09-01T11:16:46.232Z,4280
2022-09-01T11:17:47.254Z,4185
2022-09-01T11:18:47.856Z,4241
2022-09-01T11:19:49.178Z,4320
2022-09-01T11:20:49.778Z,4449
2022-09-01T11:21:50.381Z,4674
2022-09-01T11:22:52.839Z,2053
2022-09-01T11:23:52.795Z,4680
2022-09-01T11:25:00.138Z,4792
2022-09-01T11:26:56.563Z,1530
2022-09-01T11:27:57.168Z,3099
2022-09-01T11:28:58.677Z,1383
2022-09-01T11:29:59.280Z,1355
2022-09-01T11:30:59.883Z,1344
2022-09-01T11:32:00.527Z,1355
2022-09-01T11:33:01.123Z,1361
2022-09-01T11:34:01.742Z,1361
2022-09-01T11:35:02.340Z,1372
2022-09-01T11:36:02.948Z,1417
2022-09-01T11:37:03.567Z,1440
2022-09-01T11:38:04.312Z,1462
2022-09-01T11:39:04.915Z,1462
2022-09-01T11:40:05.573Z,1473
2022-09-01T11:41:06.136Z,1473
2022-09-01T11:42:06.837Z,1575
2022-09-01T11:43:08.103Z,1665
2022-09-01T11:44:09.032Z,1653
2022-09-01T11:45:09.635Z,1485
2022-09-01T11:46:11.406Z,1456
2022-09-01T11:47:14.302Z,2002
2022-09-01T11:48:12.455Z,3082
2022-09-01T11:49:13.056Z,3538
2022-09-01T11:50:13.663Z,4213
2022-09-01T11:51:14.615Z,3228
2022-09-01T11:52:15.433Z,4196
2022-09-01T11:53:16.097Z,3943
2022-09-01T11:54:16.675Z,3813
2022-09-01T11:55:17.279Z,3566
2022-09-01T11:56:17.884Z,3487
2022-09-01T11:57:18.508Z,3487
2022-09-01T11:58:19.115Z,3521
2022-09-01T11:59:19.723Z,3571
2022-09-01T12:00:20.320Z,3763
2022-09-01T12:01:20.924Z,3993
2022-09-01T12:02:21.572Z,4128
2022-09-01T12:03:22.675Z,4089
2022-09-01T12:04:23.542Z,4021
2022-09-01T12:05:24.135Z,3189
2022-09-01T12:06:24.741Z,1192
2022-09-01T12:07:25.344Z,4297
2022-09-01T12:08:25.946Z,1125
2022-09-01T12:09:26.550Z,1164
2022-09-01T12:10:27.152Z,1906
2022-09-01T12:11:27.753Z,1265
2022-09-01T12:12:28.362Z,4595
2022-09-01T12:13:28.965Z,4314
2022-09-01T12:14:43.399Z,4803
2022-09-01T12:15:31.163Z,1029
2022-09-01T12:16:31.811Z,3830
2022-09-01T12:17:32.378Z,5000
2022-09-01T12:18:33.006Z,4871
2022-09-01T12:19:33.604Z,4601
2022-09-01T12:20:34.208Z,4573
2022-09-01T12:21:34.812Z,4584
2022-09-01T12:22:35.437Z,4561
2022-09-01T12:23:36.044Z,4545
2022-09-01T12:24:36.652Z,4449
2022-09-01T12:25:37.250Z,4336
2022-09-01T12:26:37.852Z,4308
2022-09-01T12:27:38.460Z,4477
2022-09-01T12:28:39.058Z,4595
2022-09-01T12:29:39.660Z,3673
2022-09-01T12:30:40.285Z,1293
2022-09-01T12:31:40.917Z,4691
2022-09-01T12:32:41.504Z,4702
2022-09-01T12:33:42.164Z,4696
2022-09-01T12:34:42.722Z,4629
2022-09-01T12:35:43.323Z,950
2022-09-01T12:37:44.532Z,877
2022-09-01T12:38:45.137Z,928
2022-09-01T12:39:45.737Z,1316
2022-09-01T12:40:46.370Z,4443
2022-09-01T12:41:47.255Z,4365
2022-09-01T12:42:47.852Z,1175
2022-09-01T12:43:53.359Z,3999
2022-09-01T12:44:50.596Z,1040
2022-09-01T12:45:51.228Z,1293
2022-09-01T12:46:51.804Z,900
2022-09-01T12:47:52.404Z,933
2022-09-01T12:48:53.009Z,4381
2022-09-01T12:49:55.682Z,4308
2022-09-01T12:50:56.155Z,4286
2022-09-01T12:51:56.808Z,4291
2022-09-01T12:52:57.431Z,821
2022-09-01T12:53:58.479Z,765
2022-09-01T12:54:59.228Z,770
2022-09-01T12:55:59.829Z,1051
2022-09-01T12:57:00.432Z,3397
2022-09-01T12:58:01.035Z,4348
2022-09-01T12:59:01.641Z,4196
2022-09-01T13:00:02.249Z,4168
2022-09-01T13:01:02.919Z,4072
2022-09-01T13:02:03.580Z,4061
2022-09-01T13:03:05.456Z,1327
2022-09-01T13:04:06.217Z,1091
2022-09-01T13:05:06.783Z,1186
2022-09-01T13:06:07.988Z,2407
2022-09-01T13:07:08.981Z,3583
2022-09-01T13:08:09.571Z,3144
2022-09-01T13:09:10.393Z,3352
2022-09-01T13:10:10.949Z,3296
2022-09-01T13:11:11.718Z,3296
2022-09-01T13:12:12.288Z,3324
2022-09-01T13:13:12.966Z,3386
2022-09-01T13:14:13.533Z,3453
2022-09-01T13:16:14.785Z,3588
2022-09-01T13:17:15.352Z,2109
2022-09-01T13:18:16.006Z,3628
2022-09-01T13:19:23.995Z,3526
2022-09-01T13:20:18.187Z,3639
2022-09-01T13:21:18.789Z,3661
2022-09-01T13:22:19.391Z,3678
2022-09-01T13:23:20.120Z,3763
2022-09-01T13:24:23.344Z,3993
2022-09-01T13:25:22.403Z,4095
2022-09-01T13:26:23.006Z,4224
2022-09-01T13:27:23.872Z,1080
2022-09-01T13:29:26.129Z,905
2022-09-01T13:30:26.729Z,945
2022-09-01T13:31:29.281Z,995
2022-09-01T13:32:28.863Z,961
2022-09-01T13:33:29.480Z,961
2022-09-01T13:34:30.096Z,945
2022-09-01T13:35:30.673Z,911
2022-09-01T13:36:50.604Z,894
2022-09-01T13:37:32.892Z,911
2022-09-01T13:38:33.493Z,945
2022-09-01T13:39:34.100Z,3431
2022-09-01T13:40:34.757Z,1440
2022-09-01T13:41:35.320Z,1608
2022-09-01T13:42:35.919Z,1046
2022-09-01T13:43:36.579Z,1006
2022-09-01T13:44:37.141Z,1760
2022-09-01T13:45:37.782Z,3870
2022-09-01T13:46:58.943Z,3796
2022-09-01T13:48:15.249Z,3678
2022-09-01T13:50:05.401Z,3526
2022-09-01T13:51:46.324Z,3583
2022-09-01T13:52:46.929Z,3538
2022-09-01T13:53:48.526Z,3504
2022-09-01T13:54:49.128Z,3532
2022-09-01T13:55:49.799Z,3600
2022-09-01T13:56:50.387Z,3673
2022-09-01T13:57:55.187Z,3746
2022-09-01T13:58:52.589Z,3819
2022-09-01T13:59:53.196Z,3830
2022-09-01T14:00:53.835Z,3898
2022-09-01T14:01:54.408Z,4055
2022-09-01T14:02:55.014Z,4106
2022-09-01T14:04:00.076Z,3397
2022-09-01T14:04:56.306Z,4303
2022-09-01T14:05:56.862Z,1530
2022-09-01T14:06:57.466Z,4505
2022-09-01T14:07:59.060Z,4561
2022-09-01T14:08:59.663Z,3380
2022-09-01T14:10:00.288Z,1968
2022-09-01T14:11:00.888Z,4168
2022-09-01T14:12:01.494Z,2790
2022-09-01T14:13:02.094Z,1991
2022-09-01T14:14:02.696Z,1749
2022-09-01T14:15:13.637Z,1237
2022-09-01T14:16:05.262Z,2964
2022-09-01T14:17:05.850Z,3729
2022-09-01T14:18:06.457Z,3695
2022-09-01T14:19:07.060Z,3729
2022-09-01T14:20:07.671Z,3740
2022-09-01T14:21:08.267Z,3684
2022-09-01T14:22:08.880Z,3571
2022-09-01T14:23:09.474Z,3397
2022-09-01T14:24:10.082Z,3256
2022-09-01T14:25:10.693Z,3172
2022-09-01T14:26:11.290Z,3105
2022-09-01T14:27:11.895Z,3093
2022-09-01T14:28:12.521Z,3105
2022-09-01T14:29:13.120Z,3172
2022-09-01T14:30:13.726Z,3251
2022-09-01T14:31:14.329Z,3251
2022-09-01T14:32:14.956Z,3386
2022-09-01T14:33:15.556Z,3470
2022-09-01T14:34:16.431Z,3583
2022-09-01T14:35:17.034Z,2823
2022-09-01T14:36:17.635Z,3678